Wetterdaten: aktuell Dienstag, 22.06.2021 21:00
Datum Zeit Temp. A. Feuchte A. Luftdruck Regen Wind Richtung Richtung Sonnenschein ET UV Solar Taupunkt Windchill Windben
22.06.2021 21:00 18,2 C 76 % 1016,2 hPa 0,0 l/m 0,0 km/h (0 Bft) O-NO 68 0 min 0,025 mm 0,0 UV-I 16 W/m 13,9 C 18,2 C 0,0 km/h (0 Bft)
22.06.2021 20:00 18,8 C 72 % 1015,6 hPa 0,0 l/m 0,0 km/h (0 Bft) O-NO 69 5 min 0,076 mm 0,0 UV-I 35 W/m 13,6 C 18,8 C 0,0 km/h (0 Bft)
22.06.2021 19:00 19,1 C 72 % 1015,3 hPa 0,0 l/m 0,0 km/h (0 Bft) N-NW 344 0 min 0,127 mm 0,6 UV-I 134 W/m 13,9 C 19,1 C 1,6 km/h (1 Bft)
22.06.2021 18:00 19,3 C 71 % 1015,1 hPa 0,0 l/m 0,0 km/h (0 Bft) O-NO 77 0 min 0,127 mm 0,9 UV-I 155 W/m 13,9 C 19,3 C 1,6 km/h (1 Bft)
22.06.2021 17:00 19,2 C 72 % 1014,9 hPa 0,0 l/m 0,0 km/h (0 Bft) N-NO 29 10 min 0,178 mm 1,2 UV-I 197 W/m 14,0 C 19,2 C 1,6 km/h (1 Bft)
22.06.2021 16:00 19,3 C 72 % 1014,5 hPa 0,0 l/m 0,5 km/h (0 Bft) N-NW 331 5 min 0,178 mm 2,5 UV-I 334 W/m 14,1 C 19,3 C 4,8 km/h (1 Bft)
22.06.2021 15:00 18,6 C 74 % 1014,5 hPa 0,0 l/m 0,6 km/h (0 Bft) N-NW 348 0 min 0,203 mm 2,5 UV-I 313 W/m 13,9 C 18,6 C 4,8 km/h (1 Bft)
22.06.2021 14:00 17,2 C 79 % 1014,4 hPa 0,0 l/m 0,4 km/h (0 Bft) N-NW 346 0 min 0,102 mm 2,4 UV-I 283 W/m 13,5 C 17,2 C 6,4 km/h (2 Bft)
22.06.2021 13:00 17,8 C 77 % 1014,5 hPa 0,0 l/m 1,0 km/h (0 Bft) W 277 0 min 0,152 mm 2,4 UV-I 279 W/m 13,7 C 17,8 C 6,4 km/h (2 Bft)
22.06.2021 12:00 16,9 C 80 % 1014,2 hPa 0,0 l/m 2,6 km/h (1 Bft) N 355 0 min 0,102 mm 2,9 UV-I 366 W/m 13,4 C 16,9 C 9,7 km/h (2 Bft)
22.06.2021 11:00 16,1 C 83 % 1013,9 hPa 0,0 l/m 1,0 km/h (0 Bft) N-NW 334 0 min 0,076 mm 1,3 UV-I 158 W/m 13,2 C 16,1 C 8,0 km/h (2 Bft)
22.06.2021 10:00 16,3 C 82 % 1013,8 hPa 0,0 l/m 0,9 km/h (0 Bft) N-NW 345 0 min 0,101 mm 1,1 UV-I 156 W/m 13,2 C 16,3 C 8,0 km/h (2 Bft)
22.06.2021 09:00 15,9 C 85 % 1013,3 hPa 0,0 l/m 0,8 km/h (0 Bft) NW 318 0 min 0,077 mm 1,4 UV-I 302 W/m 13,4 C 15,9 C 6,4 km/h (2 Bft)
22.06.2021 08:00 15,4 C 85 % 1013,0 hPa 0,0 l/m 0,0 km/h (0 Bft) N-NW 328 0 min 0,002 mm 0,5 UV-I 107 W/m 12,9 C 15,4 C 0,0 km/h (0 Bft)
22.06.2021 07:00 15,1 C 84 % 1012,6 hPa 0,0 l/m 0,5 km/h (0 Bft) N-NW 333 0 min 0,000 mm 0,0 UV-I 28 W/m 12,4 C 15,1 C 8,0 km/h (2 Bft)
22.06.2021 06:00 15,2 C 86 % 1012,5 hPa 0,0 l/m 0,1 km/h (0 Bft) N-NO 22 0 min 0,025 mm 0,0 UV-I 9 W/m 12,9 C 15,2 C 3,2 km/h (1 Bft)
22.06.2021 05:00 15,3 C 85 % 1012,0 hPa 0,0 l/m 0,0 km/h (0 Bft) N 0 0 min 0,025 mm 0,0 UV-I 0 W/m 12,8 C 15,3 C 0,0 km/h (0 Bft)
22.06.2021 04:00 15,6 C 84 % 1011,5 hPa 0,0 l/m 0,0 km/h (0 Bft) N-NW 337 0 min 0,025 mm 0,0 UV-I 0 W/m 12,9 C 15,6 C 8,0 km/h (2 Bft)
22.06.2021 03:00 16,4 C 84 % 1011,3 hPa 0,0 l/m 0,0 km/h (0 Bft) N 360 0 min 0,025 mm 0,0 UV-I 0 W/m 13,7 C 16,4 C 3,2 km/h (1 Bft)
22.06.2021 02:00 17,4 C 83 % 1010,4 hPa 0,0 l/m 0,0 km/h (0 Bft) N-NW 337 0 min 0,025 mm 0,0 UV-I 0 W/m 14,5 C 17,4 C 6,4 km/h (2 Bft)
22.06.2021 01:00 18,6 C 84 % 1010,0 hPa 0,0 l/m 0,0 km/h (0 Bft) N 360 0 min 0,025 mm 0,0 UV-I 0 W/m 15,8 C 18,6 C 1,6 km/h (1 Bft)
22.06.2021 00:00 20,2 C 78 % 1008,7 hPa 0,0 l/m 0,0 km/h (0 Bft) N 360 0 min 0,025 mm 0,0 UV-I 0 W/m 16,2 C 20,2 C 4,8 km/h (1 Bft)
_ Min-Zeit 06:45 16:25 00:00 - 00:00 - - - - - - 06:50 05:45 00:15
Minimum _ 15,0 C 70 % 1008,7 hPa - 0,0 km/h (0 Bft) - - - - - - 12,4 C 15,1 C 0,0 km/h (0 Bft)
_ Max-Zeit 00:00 05:05 20:40 00:00 12:00 - - 15:40 15:00 12:45 15:40 00:05 00:00 07:20
Maximum _ 20,4 C 86 % 1016,2 hPa 0,0 l/m 2,6 km/h
N (1 Bft)
- - 5 min 0,203 mm 3,2 UV-I 420 W/m 16,4 C 20,2 C 14,5 km/h
N-NW (3 Bft)
Durchschnitt _ 17,3 C 80 % 1013,3 hPa #0,0 l/m 0,3 km/h (0 Bft) N-NW - #20 min. #1,600 mm 1,5 UV-I 166 W/m 13,7 C 17,3 C 4,7 km/h (1 Bft)